Time;durP1;ratioP1;P1;durP2;ratioP2;P2;SDS_P1;SDS_P2;PMS_P1;PMS_P2;Temp;Humidity;BMP_temperature;BMP_pressure;BME280_temperature;BME280_humidity;BME280_pressure;Samples;Min_cycle;Max_cycle;Signal;HPM_P1;HPM_P2
2023/05/16 00:01:11;;;;;;;;;;;;;;;7.14;79.20;101456.38;5040035;28;20396;-95
2023/05/16 00:03:36;;;;;;;;;;;;;;;7.05;79.88;101453.19;5042748;28;20316;-96
2023/05/16 00:06:02;;;;;;;;;;;;;;;7.01;79.82;101455.88;5073213;28;20405;-96
2023/05/16 00:08:27;;;;;;;;;;;;;;;6.97;80.81;101451.69;5040567;28;19985;-95
2023/05/16 00:10:53;;;;;;;;;;;;;;;6.92;81.05;101448.41;5043089;28;19927;-96
2023/05/16 00:13:23;;;;;;;;;;;;;;;6.87;81.82;101445.97;5051791;28;19925;-96
2023/05/16 00:15:50;;;;;;;;;;;;;;;6.95;82.22;101450.88;5052879;28;20428;-96
2023/05/16 00:18:16;;;;;;;;;;;;;;;6.95;82.19;101454.31;5053651;28;20011;-96
2023/05/16 00:20:41;;;;;;;;;;;;;;;6.85;83.53;101451.16;5051041;28;19970;-96
2023/05/16 00:23:06;;;;;;;;;;;;;;;6.93;82.87;101445.81;5046713;28;19924;-96
2023/05/16 00:25:31;;;;;;;;;;;;;;;6.95;83.18;101445.75;5046603;28;20379;-96
2023/05/16 00:27:57;;;;;;;;;;;;;;;6.92;83.03;101441.53;5043952;28;19972;-96
2023/05/16 00:30:22;;;;;;;;;;;;;;;6.91;82.69;101439.88;5047215;28;19928;-96
2023/05/16 00:32:47;;;;;;;;;;;;;;;6.95;82.95;101443.19;5041199;28;20436;-96
2023/05/16 00:35:12;;;;;;;;;;;;;;;6.93;83.04;101448.38;5041151;28;19921;-96
2023/05/16 00:37:38;;;;;;;;;;;;;;;6.90;83.55;101440.75;5042392;28;19956;-96
2023/05/16 00:40:03;;;;;;;;;;;;;;;6.92;83.20;101448.41;5050456;28;19921;-96
2023/05/16 00:42:30;;;;;;;;;;;;;;;6.83;83.70;101442.63;5048095;28;19984;-96
2023/05/16 00:44:56;;;;;;;;;;;;;;;6.81;82.81;101443.56;5047042;28;19936;-96
2023/05/16 00:47:21;;;;;;;;;;;;;;;6.85;82.79;101446.00;5038968;28;20298;-96
2023/05/16 00:49:46;;;;;;;;;;;;;;;6.80;82.07;101442.72;5039218;28;19929;-96
2023/05/16 00:52:11;;;;;;;;;;;;;;;6.68;82.40;101443.00;5039534;28;19998;-96
2023/05/16 00:54:37;;;;;;;;;;;;;;;6.50;81.97;101448.59;5041823;28;19964;-96
2023/05/16 00:57:03;;;;;;;;;;;;;;;6.48;83.62;101448.63;5042263;28;20008;-96
2023/05/16 00:59:28;;;;;;;;;;;;;;;6.34;83.75;101446.41;5054192;28;20444;-96
2023/05/16 01:01:55;;;;;;;;;;;;;;;6.29;84.10;101440.56;5043416;28;20421;-96
2023/05/16 01:04:20;;;;;;;;;;;;;;;6.34;84.42;101438.72;5043577;28;19946;-96
2023/05/16 01:06:45;;;;;;;;;;;;;;;6.36;84.33;101434.38;5042576;28;19921;-96
2023/05/16 01:09:11;;;;;;;;;;;;;;;6.32;84.47;101435.34;5043359;28;19920;-95
2023/05/16 01:11:51;;;;;;;;;;;;;;;6.33;84.29;101431.91;5042114;28;19959;-93
2023/05/16 01:14:21;;;;;;;;;;;;;;;6.40;85.50;101433.44;5037494;28;19920;-93
2023/05/16 01:16:46;;;;;;;;;;;;;;;6.43;84.36;101442.78;5060899;28;20417;-95
2023/05/16 01:19:30;;;;;;;;;;;;;;;6.45;84.21;101445.31;5036843;28;19952;-93
2023/05/16 01:22:04;;;;;;;;;;;;;;;6.42;84.75;101446.22;5064336;28;19967;-93
2023/05/16 01:24:36;;;;;;;;;;;;;;;6.40;85.48;101437.72;5035847;28;19921;-93
2023/05/16 01:27:03;;;;;;;;;;;;;;;6.36;85.75;101444.63;5054444;28;20388;-94
2023/05/16 01:29:29;;;;;;;;;;;;;;;6.22;85.34;101444.16;5056191;28;19936;-93
2023/05/16 01:31:54;;;;;;;;;;;;;;;6.21;86.40;101448.41;5034326;28;19917;-95
2023/05/16 01:34:19;;;;;;;;;;;;;;;6.19;86.04;101449.31;5036379;28;20358;-94
2023/05/16 01:37:11;;;;;;;;;;;;;;;6.09;86.08;101445.28;5036482;28;20410;-93
2023/05/16 01:39:40;;;;;;;;;;;;;;;6.07;85.21;101447.03;5032638;28;19917;-93
2023/05/16 01:42:13;;;;;;;;;;;;;;;6.08;85.45;101448.75;5036558;28;19928;-93
2023/05/16 01:44:42;;;;;;;;;;;;;;;6.11;86.07;101446.09;5036341;28;20336;-93
2023/05/16 01:47:10;;;;;;;;;;;;;;;6.02;85.97;101441.19;5035364;28;19924;-93
2023/05/16 01:50:08;;;;;;;;;;;;;;;6.03;85.98;101442.88;5057198;28;19999;-92
2023/05/16 01:52:44;;;;;;;;;;;;;;;6.10;86.39;101452.13;5010961;28;19928;-94
2023/05/16 01:55:11;;;;;;;;;;;;;;;6.09;86.74;101450.41;5221667;22;19976;-96
2023/05/16 01:57:37;;;;;;;;;;;;;;;6.11;86.82;101441.81;5046110;28;20007;-94
2023/05/16 02:00:03;;;;;;;;;;;;;;;5.85;87.32;101450.03;5064518;28;19921;-95
2023/05/16 02:02:29;;;;;;;;;;;;;;;5.90;86.91;101448.25;5064918;28;19928;-96
2023/05/16 02:04:55;;;;;;;;;;;;;;;5.77;87.17;101447.63;5031354;28;19921;-96
2023/05/16 02:07:20;;;;;;;;;;;;;;;5.77;86.75;101455.31;5047502;28;20302;-96
2023/05/16 02:09:45;;;;;;;;;;;;;;;5.81;86.54;101448.44;5046062;28;20024;-96
2023/05/16 02:12:10;;;;;;;;;;;;;;;5.84;86.80;101450.09;5041449;28;19920;-95
2023/05/16 02:14:36;;;;;;;;;;;;;;;5.86;86.13;101454.31;5042839;28;20418;-96
2023/05/16 02:17:01;;;;;;;;;;;;;;;5.85;86.68;101450.03;5046733;28;19920;-95
2023/05/16 02:19:26;;;;;;;;;;;;;;;5.82;87.94;101449.28;5036410;28;19968;-96
2023/05/16 02:21:51;;;;;;;;;;;;;;;5.83;87.64;101451.81;5034560;28;19921;-96
2023/05/16 02:24:17;;;;;;;;;;;;;;;5.81;87.32;101461.25;5031213;28;19921;-96
2023/05/16 02:26:42;;;;;;;;;;;;;;;5.79;87.00;101452.75;5034634;28;19920;-96
2023/05/16 02:29:08;;;;;;;;;;;;;;;5.68;85.71;101454.69;5035263;28;19948;-96
2023/05/16 02:31:33;;;;;;;;;;;;;;;5.65;86.36;101452.19;5034478;28;19928;-95
2023/05/16 02:33:59;;;;;;;;;;;;;;;5.53;86.54;101449.00;5034105;28;20366;-96
2023/05/16 02:36:24;;;;;;;;;;;;;;;5.50;87.47;101443.94;5035164;28;20008;-95
2023/05/16 02:51:46;;;;;;;;;;;;;;;5.70;86.62;101455.50;5059783;28;19925;-96
2023/05/16 02:54:12;;;;;;;;;;;;;;;5.66;85.99;101454.72;5061627;28;19921;-95
2023/05/16 02:56:37;;;;;;;;;;;;;;;5.36;87.36;101457.03;5044014;28;20016;-96
2023/05/16 02:59:03;;;;;;;;;;;;;;;5.37;87.74;101452.75;5047292;28;19921;-96
2023/05/16 03:01:29;;;;;;;;;;;;;;;5.36;87.68;101453.59;5070761;28;19925;-95
2023/05/16 03:03:54;;;;;;;;;;;;;;;5.40;87.24;101452.69;5062705;28;19980;-96
2023/05/16 03:06:20;;;;;;;;;;;;;;;5.38;87.31;101454.44;5053186;28;20310;-96
2023/05/16 03:08:46;;;;;;;;;;;;;;;5.29;87.78;101459.72;5067136;28;19920;-96
2023/05/16 03:11:11;;;;;;;;;;;;;;;5.25;87.40;101451.25;5074746;28;19921;-96
2023/05/16 03:13:36;;;;;;;;;;;;;;;5.21;87.88;101451.34;5069459;28;19932;-95
2023/05/16 03:16:02;;;;;;;;;;;;;;;5.24;87.77;101451.28;5070923;28;19921;-96
2023/05/16 03:18:27;;;;;;;;;;;;;;;5.24;88.06;101451.28;5068025;28;19921;-96
2023/05/16 03:20:53;;;;;;;;;;;;;;;5.20;88.33;101449.69;5069656;28;19926;-96
2023/05/16 03:23:19;;;;;;;;;;;;;;;5.17;88.30;101449.72;5060033;28;19925;-96
2023/05/16 03:25:45;;;;;;;;;;;;;;;5.14;88.99;101451.47;5040680;28;20387;-96
2023/05/16 03:28:10;;;;;;;;;;;;;;;5.12;89.01;101448.09;5067863;28;19927;-96
2023/05/16 03:30:35;;;;;;;;;;;;;;;5.06;88.99;101450.75;5069306;28;20387;-96
2023/05/16 03:33:01;;;;;;;;;;;;;;;5.07;88.76;101447.34;5061426;28;19920;-96
2023/05/16 03:35:27;;;;;;;;;;;;;;;5.11;88.94;101448.13;5058989;28;19921;-95
2023/05/16 03:37:52;;;;;;;;;;;;;;;5.10;89.04;101439.59;5064436;28;20441;-96
2023/05/16 03:40:17;;;;;;;;;;;;;;;5.04;89.39;101443.97;5065002;28;19920;-96
2023/05/16 03:42:43;;;;;;;;;;;;;;;4.92;89.92;101440.75;5076940;28;19980;-96
2023/05/16 03:45:08;;;;;;;;;;;;;;;5.00;89.94;101434.66;5094476;28;20000;-96
2023/05/16 03:47:33;;;;;;;;;;;;;;;4.93;90.25;101437.34;5081079;28;19917;-96
2023/05/16 03:49:59;;;;;;;;;;;;;;;4.93;90.12;101428.84;5081997;28;19960;-96
2023/05/16 03:52:24;;;;;;;;;;;;;;;4.89;90.36;101433.16;5086500;28;19904;-96
2023/05/16 03:54:50;;;;;;;;;;;;;;;4.90;89.63;101431.44;5082375;28;19917;-96
2023/05/16 03:57:15;;;;;;;;;;;;;;;4.81;89.77;101441.84;5101158;28;19923;-96
2023/05/16 03:59:41;;;;;;;;;;;;;;;4.82;90.11;101444.34;5088253;28;19901;-96
2023/05/16 04:02:06;;;;;;;;;;;;;;;4.76;90.21;101441.09;5097009;28;19904;-96
2023/05/16 04:09:39;;;;;;;;;;;;;;;4.63;91.16;101459.19;5098716;28;19925;-96
2023/05/16 04:12:05;;;;;;;;;;;;;;;4.67;91.61;101450.59;5078605;28;19940;-96
2023/05/16 04:14:30;;;;;;;;;;;;;;;4.57;92.18;101459.28;5085120;28;19912;-96
2023/05/16 04:16:56;;;;;;;;;;;;;;;4.59;92.17;101457.53;5107083;28;19905;-96
2023/05/16 04:19:21;;;;;;;;;;;;;;;4.59;92.34;101461.81;5077725;28;19935;-96
2023/05/16 04:21:47;;;;;;;;;;;;;;;4.61;91.84;101460.94;5106700;28;19921;-96
2023/05/16 04:24:12;;;;;;;;;;;;;;;4.55;92.35;101468.69;5096177;28;19920;-96
2023/05/16 04:26:37;;;;;;;;;;;;;;;4.53;92.72;101467.03;5092938;28;19932;-96
2023/05/16 04:29:03;;;;;;;;;;;;;;;4.52;93.33;101467.91;5094461;28;19931;-96
2023/05/16 04:31:28;;;;;;;;;;;;;;;4.50;93.79;101467.91;5095494;28;19916;-96
2023/05/16 04:33:54;;;;;;;;;;;;;;;4.48;94.30;101465.38;5084935;28;19924;-96
2023/05/16 04:36:20;;;;;;;;;;;;;;;4.46;94.47;101468.81;5094122;28;19967;-96
2023/05/16 04:38:46;;;;;;;;;;;;;;;4.44;94.48;101468.03;5079249;28;19923;-96
2023/05/16 04:41:12;;;;;;;;;;;;;;;4.35;95.53;101475.81;5093911;28;19920;-96
2023/05/16 04:51:18;;;;;;;;;;;;;;;4.52;94.52;101486.63;5075968;28;19946;-96
2023/05/16 04:53:43;;;;;;;;;;;;;;;4.53;94.56;101483.19;5086734;28;19963;-96
2023/05/16 04:56:09;;;;;;;;;;;;;;;4.48;94.94;101483.25;5057371;28;19908;-96
2023/05/16 04:58:34;;;;;;;;;;;;;;;4.51;94.41;101474.69;5065809;28;19929;-96
2023/05/16 05:13:55;;;;;;;;;;;;;;;4.55;96.50;101478.06;5854674;22;19947;-95
2023/05/16 05:18:53;;;;;;;;;;;;;;;4.62;95.25;101485.63;5050284;28;19925;-95
2023/05/16 05:21:19;;;;;;;;;;;;;;;4.67;94.80;101488.94;5054822;28;19947;-96
2023/05/16 05:23:44;;;;;;;;;;;;;;;4.69;95.56;101484.66;5036889;28;20247;-95
2023/05/16 05:26:10;;;;;;;;;;;;;;;4.72;96.43;101484.59;5036216;28;20378;-93
2023/05/16 05:28:36;;;;;;;;;;;;;;;4.85;97.07;101479.28;5054084;28;19917;-95
2023/05/16 05:31:03;;;;;;;;;;;;;;;4.98;96.96;101479.94;5036491;28;19983;-94
2023/05/16 05:33:29;;;;;;;;;;;;;;;5.13;97.15;101495.00;5054036;28;20031;-92
2023/05/16 05:35:56;;;;;;;;;;;;;;;5.21;96.74;101493.13;5037580;28;19925;-96
2023/05/16 05:38:21;;;;;;;;;;;;;;;5.29;96.80;101491.28;5038198;28;20033;-95
2023/05/16 05:40:46;;;;;;;;;;;;;;;5.39;96.28;101506.47;5071172;28;20386;-96
2023/05/16 05:43:12;;;;;;;;;;;;;;;5.46;97.07;101503.78;5045461;28;19927;-95
2023/05/16 05:45:37;;;;;;;;;;;;;;;5.60;97.94;101507.78;5035511;28;19928;-94
2023/05/16 05:48:02;;;;;;;;;;;;;;;5.72;94.57;101512.66;5038564;28;20425;-94
2023/05/16 05:50:28;;;;;;;;;;;;;;;5.84;93.45;101514.97;5045111;28;19933;-95
2023/05/16 05:52:53;;;;;;;;;;;;;;;5.92;94.77;101513.09;5037391;28;19939;-93
2023/05/16 05:55:19;;;;;;;;;;;;;;;6.03;91.57;101514.63;5055571;28;19916;-93
2023/05/16 05:57:44;;;;;;;;;;;;;;;6.13;90.89;101527.22;5042038;28;20023;-94
2023/05/16 06:00:10;;;;;;;;;;;;;;;6.20;90.96;101522.81;5052711;28;19917;-93
2023/05/16 06:02:35;;;;;;;;;;;;;;;6.30;90.73;101523.44;5034672;28;19917;-94
2023/05/16 06:05:00;;;;;;;;;;;;;;;6.42;91.33;101524.00;5035401;28;20290;-92
2023/05/16 06:07:26;;;;;;;;;;;;;;;6.54;89.78;101524.59;5032644;28;19921;-93
2023/05/16 06:09:51;;;;;;;;;;;;;;;6.70;87.48;101528.47;5015615;28;19921;-92
2023/05/16 06:12:16;;;;;;;;;;;;;;;6.84;86.40;101520.47;5032098;28;20024;-92
2023/05/16 06:14:41;;;;;;;;;;;;;;;7.08;82.24;101529.28;5032469;28;20034;-92
2023/05/16 06:17:07;;;;;;;;;;;;;;;7.32;80.17;101532.09;5039751;28;19917;-92
2023/05/16 06:19:32;;;;;;;;;;;;;;;7.45;79.11;101528.31;5052134;28;19916;-93
2023/05/16 06:21:57;;;;;;;;;;;;;;;7.64;79.10;101534.63;5050137;28;20024;-92
2023/05/16 06:24:22;;;;;;;;;;;;;;;8.86;76.93;101534.44;5051544;28;20413;-92
2023/05/16 06:26:49;;;;;;;;;;;;;;;10.47;67.24;101525.22;5052147;28;19927;-92
2023/05/16 06:29:14;;;;;;;;;;;;;;;10.87;60.64;101536.53;5052117;28;19952;-92
2023/05/16 06:31:40;;;;;;;;;;;;;;;12.23;57.57;101537.50;5051532;28;19960;-94
2023/05/16 06:34:05;;;;;;;;;;;;;;;13.08;55.14;101536.84;5034814;28;19924;-94
2023/05/16 06:36:30;;;;;;;;;;;;;;;13.73;52.30;101534.38;5049628;28;20154;-94
2023/05/16 06:38:56;;;;;;;;;;;;;;;14.07;50.59;101538.59;5034008;28;20282;-94
2023/05/16 06:41:21;;;;;;;;;;;;;;;14.46;49.47;101537.31;5034660;28;20359;-93
2023/05/16 06:43:46;;;;;;;;;;;;;;;14.94;49.97;101537.22;5053211;28;20000;-95
2023/05/16 06:46:12;;;;;;;;;;;;;;;15.61;48.09;101533.19;5034733;28;19916;-93
2023/05/16 06:48:37;;;;;;;;;;;;;;;16.02;46.38;101534.16;5034585;28;20271;-94
2023/05/16 06:51:02;;;;;;;;;;;;;;;16.08;46.14;101538.19;5052500;28;19917;-94
2023/05/16 06:53:28;;;;;;;;;;;;;;;15.73;46.56;101546.44;5033844;28;20008;-93
2023/05/16 06:55:53;;;;;;;;;;;;;;;16.77;45.22;101542.38;5034925;28;19913;-94
2023/05/16 06:58:18;;;;;;;;;;;;;;;17.30;43.43;101545.78;5050287;28;19921;-95
2023/05/16 07:00:44;;;;;;;;;;;;;;;17.49;42.72;101547.16;5023078;28;20011;-90
2023/05/16 07:03:09;;;;;;;;;;;;;;;17.64;42.02;101545.25;5059979;28;19921;-90
2023/05/16 07:05:34;;;;;;;;;;;;;;;17.73;42.90;101550.66;5058302;28;20272;-94
2023/05/16 07:08:00;;;;;;;;;;;;;;;17.69;42.10;101551.81;5033459;28;20012;-94
2023/05/16 07:10:26;;;;;;;;;;;;;;;16.93;42.62;101562.25;5036512;28;20421;-94
2023/05/16 07:12:51;;;;;;;;;;;;;;;17.22;42.07;101560.31;5024317;28;19931;-94
2023/05/16 07:15:16;;;;;;;;;;;;;;;16.97;43.58;101556.75;5010469;28;20353;-94
2023/05/16 07:17:42;;;;;;;;;;;;;;;17.59;42.61;101552.56;5020403;28;20368;-95
2023/05/16 07:20:12;;;;;;;;;;;;;;;17.62;42.15;101562.81;5033747;28;19920;-95
2023/05/16 07:22:37;;;;;;;;;;;;;;;17.78;41.75;101560.81;5028309;28;20275;-95
2023/05/16 07:25:03;;;;;;;;;;;;;;;18.32;41.76;101560.44;5032494;28;19921;-94
2023/05/16 07:27:29;;;;;;;;;;;;;;;17.58;42.10;101561.31;5053267;28;20374;-95
2023/05/16 07:29:54;;;;;;;;;;;;;;;17.84;41.85;101560.38;5028135;28;19953;-94
2023/05/16 07:32:20;;;;;;;;;;;;;;;17.85;41.85;101562.06;5032607;28;19972;-94
2023/05/16 07:34:45;;;;;;;;;;;;;;;17.82;43.05;101562.25;5038312;28;19966;-94
2023/05/16 07:37:11;;;;;;;;;;;;;;;17.94;41.85;101563.19;5042963;28;19985;-95
2023/05/16 07:39:40;;;;;;;;;;;;;;;18.10;42.81;101569.00;5044359;28;19921;-95
2023/05/16 07:42:06;;;;;;;;;;;;;;;18.41;41.25;101574.66;5054603;28;20406;-95
2023/05/16 07:44:31;;;;;;;;;;;;;;;18.39;40.39;101576.53;5055651;28;19968;-94
2023/05/16 07:46:56;;;;;;;;;;;;;;;17.57;42.68;101576.16;5039386;28;20375;-94
2023/05/16 07:49:21;;;;;;;;;;;;;;;17.91;42.40;101569.47;5034983;28;19975;-95
2023/05/16 07:51:47;;;;;;;;;;;;;;;17.95;41.53;101576.16;5037123;28;19916;-95
2023/05/16 07:54:12;;;;;;;;;;;;;;;18.07;42.12;101574.44;5036343;28;19920;-96
2023/05/16 07:56:37;;;;;;;;;;;;;;;18.32;42.25;101578.75;5034062;28;20401;-96
2023/05/16 07:59:04;;;;;;;;;;;;;;;18.81;41.16;101572.56;5054430;28;20069;-96
2023/05/16 08:01:29;;;;;;;;;;;;;;;18.33;41.66;101580.41;5034331;28;19921;-95
2023/05/16 08:03:55;;;;;;;;;;;;;;;18.04;42.14;101579.03;5037049;28;19913;-94
2023/05/16 08:06:20;;;;;;;;;;;;;;;18.71;41.95;101578.59;5037302;28;19917;-95
2023/05/16 08:08:45;;;;;;;;;;;;;;;18.31;41.89;101577.09;5037594;28;20023;-94
2023/05/16 08:11:10;;;;;;;;;;;;;;;18.62;41.27;101587.91;5037457;28;20379;-95
2023/05/16 08:13:36;;;;;;;;;;;;;;;18.59;41.89;101585.53;5037194;28;20397;-95
2023/05/16 08:16:01;;;;;;;;;;;;;;;19.46;40.01;101583.44;5036719;28;20015;-96
2023/05/16 08:18:26;;;;;;;;;;;;;;;18.19;41.45;101577.94;5037873;28;20023;-94
2023/05/16 08:20:51;;;;;;;;;;;;;;;18.49;42.12;101580.16;5037514;28;19916;-96
2023/05/16 08:23:17;;;;;;;;;;;;;;;18.89;43.14;101581.63;5055177;28;19920;-95
2023/05/16 08:25:43;;;;;;;;;;;;;;;19.53;39.67;101582.00;5037257;28;20279;-95
2023/05/16 08:28:08;;;;;;;;;;;;;;;20.24;39.15;101582.56;5036951;28;19970;-95
2023/05/16 08:30:33;;;;;;;;;;;;;;;20.14;40.18;101581.59;5035325;28;20023;-95
2023/05/16 08:33:03;;;;;;;;;;;;;;;19.19;40.14;101581.97;5037021;28;19917;-95
2023/05/16 08:35:28;;;;;;;;;;;;;;;19.43;40.33;101586.25;5036465;28;19920;-94
2023/05/16 08:37:53;;;;;;;;;;;;;;;19.91;38.53;101585.25;5036844;28;20493;-94
2023/05/16 08:40:19;;;;;;;;;;;;;;;19.57;40.13;101588.66;5036849;28;20298;-93
2023/05/16 08:42:44;;;;;;;;;;;;;;;19.67;39.60;101587.03;5054569;28;20445;-94
2023/05/16 08:45:10;;;;;;;;;;;;;;;19.34;41.09;101582.59;5035851;28;20015;-94
2023/05/16 08:47:40;;;;;;;;;;;;;;;18.35;41.89;101588.97;5036187;28;19920;-96
2023/05/16 08:50:08;;;;;;;;;;;;;;;18.73;41.30;101582.75;5054451;28;19998;-94
2023/05/16 08:52:35;;;;;;;;;;;;;;;18.79;41.78;101592.78;5036491;28;19917;-94
2023/05/16 08:55:03;;;;;;;;;;;;;;;20.11;39.06;101587.09;5036885;28;19939;-95
2023/05/16 08:57:30;;;;;;;;;;;;;;;20.23;40.73;101595.78;5036738;28;19967;-95
2023/05/16 08:59:56;;;;;;;;;;;;;;;19.38;40.37;101583.16;5053331;28;19921;-93
2023/05/16 09:02:21;;;;;;;;;;;;;;;17.98;41.47;101584.72;5054194;28;19921;-95
2023/05/16 09:04:47;;;;;;;;;;;;;;;18.20;42.48;101574.41;5035706;28;19931;-96
2023/05/16 09:07:12;;;;;;;;;;;;;;;18.77;41.63;101572.91;5034944;28;19928;-94
2023/05/16 09:09:38;;;;;;;;;;;;;;;19.14;41.69;101578.88;5036340;28;19917;-94
2023/05/16 09:12:03;;;;;;;;;;;;;;;18.28;41.72;101577.28;5036254;28;19920;-95
2023/05/16 09:14:28;;;;;;;;;;;;;;;17.33;42.15;101574.28;5036123;28;19917;-94
2023/05/16 09:17:07;;;;;;;;;;;;;;;18.63;40.63;101571.31;5035897;28;19927;-95
2023/05/16 09:19:39;;;;;;;;;;;;;;;17.70;42.26;101570.94;5035525;28;19933;-95
2023/05/16 09:22:06;;;;;;;;;;;;;;;17.60;43.12;101583.78;5016295;28;19952;-95
2023/05/16 09:24:31;;;;;;;;;;;;;;;18.67;41.10;101583.19;5016073;28;19913;-95
2023/05/16 09:26:57;;;;;;;;;;;;;;;18.46;40.99;101579.50;5033463;28;19918;-95
2023/05/16 09:29:22;;;;;;;;;;;;;;;17.86;41.57;101581.19;5026355;28;19921;-95
2023/05/16 09:31:48;;;;;;;;;;;;;;;17.83;41.45;101582.22;5036216;28;20306;-94
2023/05/16 09:34:13;;;;;;;;;;;;;;;17.53;41.46;101588.59;5035829;28;19917;-95
2023/05/16 09:36:39;;;;;;;;;;;;;;;18.25;41.73;101577.53;5036075;28;19917;-94
2023/05/16 09:39:05;;;;;;;;;;;;;;;18.71;40.25;101582.03;5035933;28;19917;-95
2023/05/16 09:41:35;;;;;;;;;;;;;;;19.80;38.57;101579.06;5017486;28;20371;-95
2023/05/16 09:44:05;;;;;;;;;;;;;;;19.32;38.95;101589.72;5015828;28;19921;-95
2023/05/16 09:46:32;;;;;;;;;;;;;;;18.64;40.92;101569.53;5027053;28;19925;-95
2023/05/16 09:48:58;;;;;;;;;;;;;;;18.36;40.55;101587.19;5035091;28;20324;-95
2023/05/16 09:51:23;;;;;;;;;;;;;;;17.64;42.87;101587.03;5035599;28;20367;-95
2023/05/16 09:53:48;;;;;;;;;;;;;;;17.10;42.62;101594.09;5035819;28;19924;-94
2023/05/16 09:56:14;;;;;;;;;;;;;;;16.98;43.85;101594.91;5053219;28;19956;-93
2023/05/16 09:58:40;;;;;;;;;;;;;;;17.25;43.81;101580.97;5035291;28;20401;-95
2023/05/16 10:01:06;;;;;;;;;;;;;;;17.36;42.67;101581.06;5034499;28;19974;-95
2023/05/16 10:03:36;;;;;;;;;;;;;;;17.00;43.11;101585.22;5054895;28;20014;-96
2023/05/16 10:06:02;;;;;;;;;;;;;;;17.37;44.03;101580.16;5055572;28;19929;-94
2023/05/16 10:08:30;;;;;;;;;;;;;;;16.62;44.19;101587.69;5054969;28;20018;-93
2023/05/16 10:10:55;;;;;;;;;;;;;;;16.73;45.72;101585.25;5073679;28;20363;-95
2023/05/16 10:13:22;;;;;;;;;;;;;;;16.30;45.67;101584.53;5072835;28;19928;-95
2023/05/16 10:15:50;;;;;;;;;;;;;;;16.25;44.91;101580.44;5045653;28;20391;-93
2023/05/16 10:18:17;;;;;;;;;;;;;;;16.06;46.65;101582.53;5031664;28;19984;-94
2023/05/16 10:20:43;;;;;;;;;;;;;;;16.90;45.68;101581.56;5026987;28;19916;-94
2023/05/16 10:23:12;;;;;;;;;;;;;;;16.75;45.87;101585.13;5035312;28;19924;-95
2023/05/16 10:25:41;;;;;;;;;;;;;;;16.53;46.34;101580.47;5035229;28;20007;-95
2023/05/16 10:28:09;;;;;;;;;;;;;;;16.35;45.57;101580.69;5052621;28;19960;-94
2023/05/16 10:30:36;;;;;;;;;;;;;;;17.28;43.62;101583.38;5049645;28;20011;-94
2023/05/16 10:33:03;;;;;;;;;;;;;;;18.60;41.84;101572.34;5054729;28;20401;-94
2023/05/16 10:35:28;;;;;;;;;;;;;;;18.69;40.88;101575.25;5054882;28;19916;-95
2023/05/16 10:37:53;;;;;;;;;;;;;;;19.25;40.10;101568.41;5054585;28;20374;-94
2023/05/16 10:40:20;;;;;;;;;;;;;;;19.72;38.67;101567.50;5054853;28;19920;-94
2023/05/16 10:43:01;;;;;;;;;;;;;;;19.74;39.55;101581.31;5054983;28;20014;-95
2023/05/16 10:45:27;;;;;;;;;;;;;;;20.46;37.19;101576.41;5047338;28;19917;-95
2023/05/16 10:47:56;;;;;;;;;;;;;;;20.95;37.17;101569.78;5034296;28;19928;-95
2023/05/16 10:50:32;;;;;;;;;;;;;;;21.20;37.33;101572.13;5034823;28;20263;-94
2023/05/16 10:53:10;;;;;;;;;;;;;;;21.94;35.84;101569.28;5034690;28;19971;-94
2023/05/16 10:55:37;;;;;;;;;;;;;;;21.17;38.70;101571.44;5034797;28;20375;-95
2023/05/16 10:58:02;;;;;;;;;;;;;;;21.69;36.41;101568.78;5034623;28;19924;-93
2023/05/16 11:00:29;;;;;;;;;;;;;;;21.49;37.43;101573.16;5037593;28;19916;-96
2023/05/16 11:03:03;;;;;;;;;;;;;;;20.87;38.47;101579.22;5034953;28;20023;-94
2023/05/16 11:05:28;;;;;;;;;;;;;;;21.66;36.36;101576.13;5036899;28;19944;-95
2023/05/16 11:08:06;;;;;;;;;;;;;;;21.82;36.59;101567.72;5038437;28;19994;-94
2023/05/16 11:10:32;;;;;;;;;;;;;;;21.58;36.53;101564.47;5038931;28;20019;-94
2023/05/16 11:13:07;;;;;;;;;;;;;;;21.90;36.42;101567.91;5038812;28;20009;-95
2023/05/16 11:15:33;;;;;;;;;;;;;;;22.80;35.75;101572.13;5038622;28;19920;-94
2023/05/16 11:18:07;;;;;;;;;;;;;;;22.31;35.30;101568.69;5037994;28;19944;-94
2023/05/16 11:20:34;;;;;;;;;;;;;;;22.52;36.44;101563.28;5038454;28;19917;-94
2023/05/16 11:23:22;;;;;;;;;;;;;;;22.17;35.89;101562.81;5038564;28;19916;-94
2023/05/16 11:25:51;;;;;;;;;;;;;;;22.59;34.93;101554.72;5025571;28;20375;-93
2023/05/16 11:28:18;;;;;;;;;;;;;;;20.92;37.41;101567.41;5038355;28;19940;-95
2023/05/16 11:30:48;;;;;;;;;;;;;;;21.65;36.50;101559.50;5038325;28;20317;-94
2023/05/16 11:33:14;;;;;;;;;;;;;;;21.34;37.36;101566.56;5037442;28;19920;-94
2023/05/16 11:35:40;;;;;;;;;;;;;;;22.03;37.06;101557.97;5038526;28;19923;-94
2023/05/16 11:38:05;;;;;;;;;;;;;;;22.68;36.70;101553.06;5035018;28;19917;-94
2023/05/16 11:40:30;;;;;;;;;;;;;;;23.19;33.11;101551.88;5037013;28;19964;-95
2023/05/16 11:42:59;;;;;;;;;;;;;;;21.32;37.79;101556.16;5037727;28;20309;-95
2023/05/16 11:45:24;;;;;;;;;;;;;;;21.44;36.17;101562.19;5038166;28;19917;-94
2023/05/16 11:47:49;;;;;;;;;;;;;;;22.03;35.23;101550.06;5036920;28;19928;-95
2023/05/16 11:50:16;;;;;;;;;;;;;;;22.90;35.93;101549.28;5038083;28;19939;-94
2023/05/16 11:52:45;;;;;;;;;;;;;;;22.60;36.25;101552.91;5055617;28;19916;-93
2023/05/16 11:55:11;;;;;;;;;;;;;;;22.23;35.53;101549.16;5037780;28;20007;-95
2023/05/16 11:57:37;;;;;;;;;;;;;;;22.59;35.71;101556.50;5037801;28;20011;-95
2023/05/16 12:00:16;;;;;;;;;;;;;;;22.57;34.58;101556.63;5055408;28;19916;-94
2023/05/16 12:02:42;;;;;;;;;;;;;;;23.50;35.17;101544.53;5035805;28;20359;-96
2023/05/16 12:05:08;;;;;;;;;;;;;;;22.99;34.85;101556.34;5037144;28;19920;-95
2023/05/16 12:07:34;;;;;;;;;;;;;;;23.72;34.45;101548.56;5037635;28;19917;-96
2023/05/16 12:10:03;;;;;;;;;;;;;;;23.18;34.88;101554.63;5036945;28;20008;-95
2023/05/16 12:12:28;;;;;;;;;;;;;;;23.33;35.06;101540.03;5037232;28;19917;-95
2023/05/16 12:14:53;;;;;;;;;;;;;;;22.99;34.45;101552.88;5037079;28;20119;-94
2023/05/16 12:17:21;;;;;;;;;;;;;;;23.28;33.39;101544.91;5035699;28;19927;-94
2023/05/16 12:19:46;;;;;;;;;;;;;;;23.19;34.28;101536.06;5037297;28;20019;-94
2023/05/16 12:22:15;;;;;;;;;;;;;;;23.55;36.15;101546.72;5037197;28;19974;-96
2023/05/16 12:24:40;;;;;;;;;;;;;;;22.19;34.62;101545.13;5037048;28;19923;-94
2023/05/16 12:27:07;;;;;;;;;;;;;;;23.08;33.96;101539.69;5036915;28;20015;-95
2023/05/16 12:29:32;;;;;;;;;;;;;;;22.66;34.15;101533.94;5037469;28;19967;-96
2023/05/16 12:31:59;;;;;;;;;;;;;;;22.92;34.59;101528.88;5020635;28;19921;-95
2023/05/16 12:34:27;;;;;;;;;;;;;;;22.31;36.58;101529.22;5017294;28;19924;-96
2023/05/16 12:36:53;;;;;;;;;;;;;;;21.72;36.45;101528.28;5017009;28;19918;-94
2023/05/16 12:39:19;;;;;;;;;;;;;;;23.68;34.41;101528.78;5017438;28;19978;-96
2023/05/16 12:41:44;;;;;;;;;;;;;;;23.58;34.79;101529.78;5017021;28;19917;-96
2023/05/16 12:44:15;;;;;;;;;;;;;;;23.67;34.04;101527.09;5034691;28;19924;-96
2023/05/16 12:46:45;;;;;;;;;;;;;;;22.81;35.48;101531.69;5032936;28;19956;-95
2023/05/16 12:49:11;;;;;;;;;;;;;;;22.59;37.01;101528.38;5036363;28;20007;-94
2023/05/16 12:51:37;;;;;;;;;;;;;;;22.35;35.69;101533.25;5036481;28;19916;-94
2023/05/16 12:54:11;;;;;;;;;;;;;;;22.44;36.00;101528.00;5036576;28;20091;-95
2023/05/16 12:56:37;;;;;;;;;;;;;;;24.32;33.33;101520.88;5036538;28;19916;-95
2023/05/16 12:59:02;;;;;;;;;;;;;;;24.60;34.12;101526.88;5036404;28;20321;-95
2023/05/16 13:01:28;;;;;;;;;;;;;;;24.31;33.57;101537.66;5034246;28;19928;-95
2023/05/16 13:03:53;;;;;;;;;;;;;;;23.30;34.66;101529.78;5036401;28;19919;-96
2023/05/16 13:06:18;;;;;;;;;;;;;;;22.74;36.09;101525.34;5036307;28;20040;-95
2023/05/16 13:08:43;;;;;;;;;;;;;;;22.95;35.55;101525.16;5036205;28;20004;-94
2023/05/16 13:11:09;;;;;;;;;;;;;;;22.13;38.31;101522.00;5036087;28;19955;-96
2023/05/16 13:13:34;;;;;;;;;;;;;;;22.48;36.63;101511.91;5054277;28;19916;-95
2023/05/16 13:16:00;;;;;;;;;;;;;;;22.41;37.31;101520.38;5047205;28;19921;-95
2023/05/16 13:18:25;;;;;;;;;;;;;;;21.98;37.91;101511.03;5051203;28;19921;-95